Terminal Aerodrome Forecast
Issued by NWS Central Illinois

Home | Current Version | Previous Version | Text Only | Print | Product List | Glossary On
Versions: 1 2 3 4 5 6 7 8 9 10 11 12 13 14 15 16 17 18 19 20
092
FTUS43 KILX 122008 AAA
TAFPIA
TAF AMD
KPIA 122008Z 1220/1318 31015G25KT P6SM SCT035
     FM130000 33013G18KT P6SM FEW040 SCT250
     FM130400 34009KT P6SM SCT250
     FM130900 33005KT P6SM SCT250=

USA.gov is the U.S. government's official web portal to all federal, state and local government web resources and services.